createdAt,value
2023-05-06T00:00:03.696Z,84.42
2023-05-06T00:02:30.404Z,84.46
2023-05-06T00:04:57.159Z,85.53
2023-05-06T00:07:23.881Z,88.01
2023-05-06T00:09:50.490Z,90.97
2023-05-06T00:12:19.272Z,92.90
2023-05-06T00:14:45.787Z,95.82
2023-05-06T00:17:12.333Z,96.58
2023-05-06T00:19:39.028Z,95.33
2023-05-06T00:22:05.800Z,94.11
2023-05-06T00:24:32.427Z,93.53
2023-05-06T00:26:58.947Z,92.25
2023-05-06T00:29:25.612Z,92.51
2023-05-06T00:31:52.175Z,92.65
2023-05-06T00:34:18.767Z,89.72
2023-05-06T00:36:45.373Z,89.81
2023-05-06T00:39:11.911Z,89.06
2023-05-06T00:41:38.467Z,87.88
2023-05-06T00:44:05.027Z,88.48
2023-05-06T00:46:31.545Z,90.29
2023-05-06T00:48:58.219Z,91.23
2023-05-06T00:51:26.177Z,92.10
2023-05-06T00:53:52.952Z,93.52
2023-05-06T00:56:20.877Z,95.17
2023-05-06T00:58:48.250Z,94.61
2023-05-06T01:01:14.955Z,95.10
2023-05-06T01:03:41.648Z,95.36
2023-05-06T01:06:19.428Z,95.68
2023-05-06T01:09:01.001Z,94.55
2023-05-06T01:11:59.669Z,94.23
2023-05-06T01:14:39.588Z,94.19
2023-05-06T01:17:11.238Z,94.56
2023-05-06T01:20:06.322Z,94.65
2023-05-06T01:22:36.609Z,94.83
2023-05-06T01:25:03.220Z,95.86
2023-05-06T01:27:29.763Z,96.24
2023-05-06T01:29:57.620Z,94.91
2023-05-06T01:32:52.067Z,94.30
2023-05-06T01:35:32.259Z,94.49
2023-05-06T01:38:01.852Z,95.47
2023-05-06T01:40:30.341Z,95.15
2023-05-06T01:42:57.583Z,95.73
2023-05-06T01:45:27.715Z,95.49
2023-05-06T01:47:54.710Z,96.52
2023-05-06T01:50:21.643Z,96.56
2023-05-06T01:53:00.011Z,97.06
2023-05-06T01:55:27.110Z,97.30
2023-05-06T01:57:59.291Z,97.70
2023-05-06T02:00:26.357Z,97.46
2023-05-06T02:02:53.079Z,96.95
2023-05-06T02:05:19.863Z,97.46
2023-05-06T02:07:46.407Z,97.44
2023-05-06T02:10:12.977Z,98.71
2023-05-06T02:12:39.554Z,98.62
2023-05-06T02:15:06.737Z,99.41
2023-05-06T02:17:35.871Z,99.17
2023-05-06T02:20:02.406Z,100.00
2023-05-06T02:22:28.919Z,99.64
2023-05-06T02:24:55.451Z,99.90
2023-05-06T02:27:24.625Z,99.97
2023-05-06T02:29:51.061Z,99.30
2023-05-06T02:32:17.651Z,99.25
2023-05-06T02:34:44.233Z,100.00
2023-05-06T02:37:10.820Z,100.00
2023-05-06T02:39:37.363Z,100.00
2023-05-06T02:42:04.114Z,100.00
2023-05-06T02:44:30.784Z,100.00
2023-05-06T02:46:57.311Z,100.00
2023-05-06T02:49:23.875Z,100.00
2023-05-06T02:51:50.395Z,100.00
2023-05-06T02:54:16.939Z,100.00
2023-05-06T02:56:43.708Z,100.00
2023-05-06T02:59:10.297Z,100.00
2023-05-06T03:01:36.886Z,100.00
2023-05-06T03:04:03.755Z,100.00
2023-05-06T03:06:31.564Z,100.00
2023-05-06T03:08:58.098Z,100.00
2023-05-06T03:11:24.689Z,100.00
2023-05-06T03:13:51.354Z,100.00
2023-05-06T03:16:17.904Z,100.00
2023-05-06T03:18:44.811Z,100.00
2023-05-06T03:21:12.610Z,100.00
2023-05-06T03:23:39.142Z,100.00
2023-05-06T03:26:06.034Z,100.00
2023-05-06T03:28:32.672Z,100.00
2023-05-06T03:30:59.451Z,100.00
2023-05-06T03:33:25.998Z,100.00
2023-05-06T03:35:52.546Z,100.00
2023-05-06T03:38:19.143Z,100.00
2023-05-06T03:40:46.074Z,100.00
2023-05-06T03:43:12.748Z,99.90
2023-05-06T03:45:39.285Z,98.97
2023-05-06T03:48:05.927Z,99.83
2023-05-06T03:50:32.593Z,99.59
2023-05-06T03:52:59.339Z,99.48
2023-05-06T03:55:25.932Z,99.12
2023-05-06T03:57:52.578Z,98.68
2023-05-06T04:00:19.339Z,97.27
2023-05-06T04:02:45.918Z,97.99
2023-05-06T04:05:12.691Z,98.23
2023-05-06T04:07:39.371Z,99.50
2023-05-06T04:10:06.734Z,99.53
2023-05-06T04:12:34.356Z,99.91
2023-05-06T04:15:01.103Z,99.32
2023-05-06T04:17:27.715Z,98.50
2023-05-06T04:19:54.287Z,99.57
2023-05-06T04:22:20.927Z,99.51
2023-05-06T04:24:47.607Z,100.00
2023-05-06T04:27:15.095Z,100.00
2023-05-06T04:29:41.699Z,100.00
2023-05-06T04:32:10.315Z,100.00
2023-05-06T04:34:37.034Z,100.00
2023-05-06T04:37:03.751Z,100.00
2023-05-06T04:39:32.074Z,100.00
2023-05-06T04:41:58.647Z,100.00
2023-05-06T04:44:25.244Z,100.00
2023-05-06T04:46:51.785Z,100.00
2023-05-06T04:49:18.311Z,99.90
2023-05-06T04:51:44.857Z,99.40
2023-05-06T04:54:11.369Z,98.92
2023-05-06T04:56:38.188Z,99.23
2023-05-06T04:59:04.700Z,99.47
2023-05-06T05:01:31.284Z,97.73
2023-05-06T05:03:57.795Z,96.23
2023-05-06T05:06:24.337Z,94.68
2023-05-06T05:08:50.986Z,94.53
2023-05-06T05:11:17.574Z,94.58
2023-05-06T05:13:44.193Z,93.81
2023-05-06T05:16:10.841Z,93.95
2023-05-06T05:18:37.482Z,94.13
2023-05-06T05:21:04.302Z,92.72
2023-05-06T05:23:30.991Z,90.09
2023-05-06T05:25:57.530Z,89.13
2023-05-06T05:28:24.115Z,87.23
2023-05-06T05:30:50.732Z,88.55
2023-05-06T05:33:17.371Z,88.59
2023-05-06T05:35:44.028Z,87.53
2023-05-06T05:38:10.971Z,85.96
2023-05-06T05:40:37.554Z,86.09
2023-05-06T05:43:04.129Z,86.02
2023-05-06T05:45:30.652Z,85.79
2023-05-06T05:47:57.242Z,84.58
2023-05-06T05:50:23.996Z,85.44
2023-05-06T05:52:50.505Z,83.70
2023-05-06T05:55:17.056Z,84.68
2023-05-06T05:57:43.610Z,84.31
2023-05-06T06:00:12.267Z,84.47
2023-05-06T06:02:40.224Z,84.02
2023-05-06T06:05:07.700Z,83.54
2023-05-06T06:07:34.374Z,83.34
2023-05-06T06:10:00.976Z,83.66
2023-05-06T06:12:27.530Z,84.33
2023-05-06T06:14:54.037Z,83.00
2023-05-06T06:17:20.636Z,84.13
2023-05-06T06:19:47.257Z,82.43
2023-05-06T06:22:13.832Z,83.83
2023-05-06T06:24:41.026Z,84.70
2023-05-06T06:27:07.621Z,85.67
2023-05-06T06:29:34.171Z,86.36
2023-05-06T06:32:03.940Z,84.93
2023-05-06T06:34:30.730Z,84.68
2023-05-06T06:36:57.266Z,84.27
2023-05-06T06:39:24.969Z,83.24
2023-05-06T06:41:51.550Z,82.60
2023-05-06T06:44:18.090Z,82.45
2023-05-06T06:46:45.007Z,82.64
2023-05-06T06:49:11.597Z,80.83
2023-05-06T06:51:38.251Z,80.16
2023-05-06T06:54:04.866Z,77.92
2023-05-06T06:56:31.922Z,78.11
2023-05-06T06:58:58.488Z,78.73
2023-05-06T07:01:25.187Z,77.08
2023-05-06T07:03:51.833Z,75.27
2023-05-06T07:06:18.385Z,77.53
2023-05-06T07:08:44.897Z,77.74
2023-05-06T07:11:12.161Z,78.04
2023-05-06T07:13:38.664Z,78.75
2023-05-06T07:16:05.297Z,77.83
2023-05-06T07:18:31.972Z,77.39
2023-05-06T07:20:58.522Z,76.85
2023-05-06T07:23:25.074Z,75.69
2023-05-06T07:25:51.605Z,75.99
2023-05-06T07:28:18.172Z,76.68
2023-05-06T07:30:45.577Z,76.74
2023-05-06T07:33:12.240Z,77.81
2023-05-06T07:35:38.801Z,77.78
2023-05-06T07:38:05.397Z,76.62
2023-05-06T07:40:32.128Z,75.50
2023-05-06T07:43:12.110Z,76.16
2023-05-06T07:45:38.728Z,75.96
2023-05-06T07:48:06.016Z,74.94
2023-05-06T07:50:32.823Z,74.51
2023-05-06T07:53:00.202Z,75.21
2023-05-06T07:55:26.785Z,76.79
2023-05-06T07:57:53.409Z,76.10
2023-05-06T08:00:20.178Z,76.28
2023-05-06T08:02:47.812Z,76.92
2023-05-06T08:05:15.230Z,77.75
2023-05-06T08:07:42.496Z,77.35
2023-05-06T08:10:10.197Z,77.63
2023-05-06T08:12:37.437Z,77.30
2023-05-06T08:15:04.346Z,76.30
2023-05-06T08:17:30.995Z,75.94
2023-05-06T08:19:57.549Z,76.99
2023-05-06T08:22:24.264Z,76.71
2023-05-06T08:24:50.975Z,76.78
2023-05-06T08:27:17.525Z,76.96
2023-05-06T08:29:44.031Z,76.37
2023-05-06T08:32:10.955Z,77.05
2023-05-06T08:34:37.599Z,76.16
2023-05-06T08:37:04.290Z,75.99
2023-05-06T08:39:31.515Z,75.73
2023-05-06T08:41:59.545Z,75.40
2023-05-06T08:44:26.721Z,75.46
2023-05-06T08:46:53.542Z,75.58
2023-05-06T08:49:20.104Z,77.01
2023-05-06T08:51:50.671Z,76.25
2023-05-06T08:54:17.936Z,76.07
2023-05-06T08:56:56.322Z,75.28
2023-05-06T08:59:25.724Z,76.04
2023-05-06T09:01:53.398Z,76.98
2023-05-06T09:04:20.086Z,78.60
2023-05-06T09:06:46.854Z,77.52
2023-05-06T09:09:14.857Z,75.64
2023-05-06T09:11:41.427Z,75.07
2023-05-06T09:14:11.129Z,73.40
2023-05-06T09:16:39.186Z,73.38
2023-05-06T09:19:06.247Z,74.62
2023-05-06T09:21:37.764Z,75.14
2023-05-06T09:24:06.276Z,75.17
2023-05-06T09:26:34.393Z,76.28
2023-05-06T09:29:01.342Z,76.00
2023-05-06T09:31:29.189Z,76.02
2023-05-06T09:33:57.264Z,75.12
2023-05-06T09:36:25.893Z,74.39
2023-05-06T09:38:54.022Z,73.28
2023-05-06T09:41:22.834Z,73.41
2023-05-06T09:43:51.044Z,74.29
2023-05-06T09:46:17.784Z,74.40
2023-05-06T09:48:45.972Z,74.21
2023-05-06T09:51:13.262Z,72.99
2023-05-06T09:53:39.867Z,72.27
2023-05-06T09:56:07.574Z,72.90
2023-05-06T09:58:38.252Z,74.08
2023-05-06T10:01:06.785Z,72.73
2023-05-06T10:03:34.265Z,72.75
2023-05-06T10:06:02.273Z,73.09
2023-05-06T10:08:29.549Z,75.33
2023-05-06T10:10:57.014Z,74.14
2023-05-06T10:13:26.888Z,73.77
2023-05-06T10:15:54.239Z,72.39
2023-05-06T10:18:21.748Z,73.23
2023-05-06T10:20:49.524Z,73.43
2023-05-06T10:23:28.394Z,72.20
2023-05-06T10:25:57.718Z,71.69
2023-05-06T10:28:30.981Z,71.70
2023-05-06T10:30:59.393Z,72.29
2023-05-06T10:33:27.199Z,72.77
2023-05-06T10:36:08.729Z,72.33
2023-05-06T10:38:41.251Z,70.56
2023-05-06T10:41:09.686Z,68.64
2023-05-06T10:43:41.541Z,69.35
2023-05-06T10:46:10.797Z,69.22
2023-05-06T10:48:39.957Z,69.51
2023-05-06T10:51:15.759Z,69.80
2023-05-06T10:54:04.219Z,71.35
2023-05-06T10:56:33.249Z,70.10
2023-05-06T10:59:09.648Z,72.22
2023-05-06T11:01:37.745Z,71.09
2023-05-06T11:04:13.151Z,71.32
2023-05-06T11:06:42.566Z,70.50
2023-05-06T11:09:17.319Z,71.68
2023-05-06T11:12:05.128Z,71.76
2023-05-06T11:14:36.868Z,70.49
2023-05-06T11:17:28.770Z,68.90
2023-05-06T11:20:26.529Z,68.49
2023-05-06T11:22:54.117Z,68.79
2023-05-06T11:25:40.092Z,68.26
2023-05-06T11:28:15.435Z,67.84
2023-05-06T11:30:44.557Z,67.08
2023-05-06T11:33:17.657Z,66.63
2023-05-06T11:35:45.127Z,66.69
2023-05-06T11:38:12.241Z,66.16
2023-05-06T11:40:41.624Z,65.04
2023-05-06T11:43:15.493Z,65.71
2023-05-06T11:45:46.787Z,66.38
2023-05-06T11:48:15.057Z,65.98
2023-05-06T11:50:48.990Z,64.33
2023-05-06T11:53:23.470Z,63.56
2023-05-06T11:55:52.903Z,63.74
2023-05-06T11:58:29.425Z,62.58
2023-05-06T12:00:58.446Z,62.39
2023-05-06T12:03:26.711Z,62.57
2023-05-06T12:05:53.594Z,63.17
2023-05-06T12:08:27.868Z,62.41
2023-05-06T12:10:58.616Z,62.14
2023-05-06T12:13:25.402Z,61.72
2023-05-06T12:15:55.092Z,63.10
2023-05-06T12:18:23.781Z,62.69
2023-05-06T12:20:50.453Z,62.84
2023-05-06T12:23:17.857Z,62.94
2023-05-06T12:25:49.105Z,62.90
2023-05-06T12:28:17.512Z,64.28
2023-05-06T12:30:44.807Z,65.97
2023-05-06T12:33:12.401Z,64.23
2023-05-06T12:35:40.010Z,63.60
2023-05-06T12:38:13.583Z,62.81
2023-05-06T12:40:41.326Z,63.46
2023-05-06T12:43:08.259Z,64.29
2023-05-06T12:45:35.187Z,64.75
2023-05-06T12:48:02.968Z,66.99
2023-05-06T12:50:37.144Z,64.79
2023-05-06T12:53:05.167Z,63.76
2023-05-06T12:55:36.223Z,63.79
2023-05-06T12:58:03.940Z,63.53
2023-05-06T13:00:30.609Z,61.40
2023-05-06T13:02:57.209Z,58.96
2023-05-06T13:05:23.815Z,59.56
2023-05-06T13:07:51.176Z,60.25
2023-05-06T13:10:17.709Z,62.71
2023-05-06T13:12:44.260Z,61.98
2023-05-06T13:15:10.975Z,61.39
2023-05-06T13:17:37.687Z,60.15
2023-05-06T13:20:05.452Z,59.83
2023-05-06T13:22:40.308Z,60.62
2023-05-06T13:25:11.531Z,59.11
2023-05-06T13:27:38.316Z,61.20
2023-05-06T13:30:05.791Z,62.25
2023-05-06T13:32:33.054Z,63.43
2023-05-06T13:34:59.788Z,63.92
2023-05-06T13:37:26.352Z,63.71
2023-05-06T13:39:53.010Z,64.29
2023-05-06T13:42:19.625Z,65.15
2023-05-06T13:44:46.204Z,66.12
2023-05-06T13:47:12.726Z,66.60
2023-05-06T13:49:39.227Z,67.32
2023-05-06T13:52:08.012Z,66.53
2023-05-06T13:54:34.984Z,64.52
2023-05-06T13:57:01.484Z,62.81
2023-05-06T13:59:28.016Z,61.73
2023-05-06T14:02:04.140Z,60.47
2023-05-06T14:04:32.210Z,63.98
2023-05-06T14:06:59.216Z,66.28
2023-05-06T14:09:25.762Z,68.35
2023-05-06T14:11:52.254Z,68.50
2023-05-06T14:14:18.788Z,69.28
2023-05-06T14:16:45.592Z,68.62
2023-05-06T14:19:12.140Z,68.62
2023-05-06T14:21:38.673Z,67.55
2023-05-06T14:24:07.571Z,66.92
2023-05-06T14:26:34.604Z,66.65
2023-05-06T14:29:01.208Z,66.43
2023-05-06T14:31:29.524Z,66.89
2023-05-06T14:33:56.401Z,68.43
2023-05-06T14:36:22.955Z,68.70
2023-05-06T14:38:49.492Z,69.59
2023-05-06T14:41:16.242Z,69.15
2023-05-06T14:43:42.805Z,64.78
2023-05-06T14:46:09.458Z,60.04
2023-05-06T14:48:36.025Z,57.23
2023-05-06T14:51:02.557Z,54.57
2023-05-06T14:53:29.191Z,55.86
2023-05-06T14:55:56.506Z,58.28
2023-05-06T14:58:23.185Z,62.27
2023-05-06T15:00:49.889Z,61.59
2023-05-06T15:03:16.631Z,63.52
2023-05-06T15:05:43.325Z,65.98
2023-05-06T15:08:10.145Z,67.02
2023-05-06T15:10:36.815Z,67.39
2023-05-06T15:13:03.715Z,68.41
2023-05-06T15:15:30.393Z,68.42
2023-05-06T15:17:56.985Z,69.24
2023-05-06T15:20:23.614Z,69.91
2023-05-06T15:22:50.194Z,69.62
2023-05-06T15:25:26.559Z,69.75
2023-05-06T15:27:58.340Z,68.87
2023-05-06T15:30:24.869Z,68.68
2023-05-06T15:32:51.474Z,67.78
2023-05-06T15:35:18.020Z,67.83
2023-05-06T15:37:44.546Z,65.67
2023-05-06T15:40:13.915Z,66.11
2023-05-06T15:42:40.753Z,65.52
2023-05-06T15:45:07.809Z,65.91
2023-05-06T15:47:34.411Z,66.37
2023-05-06T15:50:01.663Z,66.42
2023-05-06T15:52:42.686Z,68.55
2023-05-06T15:55:09.950Z,67.43
2023-05-06T15:57:36.602Z,68.30
2023-05-06T16:00:05.144Z,67.59
2023-05-06T16:02:32.714Z,67.35
2023-05-06T16:04:59.662Z,67.99
2023-05-06T16:07:27.701Z,68.52
2023-05-06T16:09:54.208Z,68.69
2023-05-06T16:12:20.777Z,68.55
2023-05-06T16:14:47.359Z,66.49
2023-05-06T16:17:15.720Z,65.46
2023-05-06T16:19:42.273Z,64.56
2023-05-06T16:22:08.842Z,65.13
2023-05-06T16:24:35.368Z,64.28
2023-05-06T16:27:02.400Z,64.15
2023-05-06T16:29:28.954Z,64.35
2023-05-06T16:31:55.638Z,65.14
2023-05-06T16:34:22.367Z,64.78
2023-05-06T16:36:49.248Z,66.30
2023-05-06T16:39:15.884Z,66.66
2023-05-06T16:41:42.572Z,67.21
2023-05-06T16:44:09.093Z,68.34
2023-05-06T16:46:35.633Z,68.68
2023-05-06T16:49:03.809Z,68.93
2023-05-06T16:51:31.200Z,69.14
2023-05-06T16:53:57.748Z,69.16
2023-05-06T16:56:25.362Z,70.12
2023-05-06T16:58:53.122Z,70.16
2023-05-06T17:01:19.788Z,70.52
2023-05-06T17:03:46.413Z,71.47
2023-05-06T17:06:13.382Z,70.03
2023-05-06T17:08:40.062Z,71.08
2023-05-06T17:11:06.874Z,70.50
2023-05-06T17:13:34.125Z,70.64
2023-05-06T17:16:00.974Z,70.05
2023-05-06T17:18:27.642Z,69.80
2023-05-06T17:20:56.713Z,71.42
2023-05-06T17:23:24.499Z,70.04
2023-05-06T17:25:51.420Z,71.61
2023-05-06T17:28:18.883Z,71.28
2023-05-06T17:30:45.914Z,71.62
2023-05-06T17:33:12.741Z,71.21
2023-05-06T17:35:39.450Z,71.39
2023-05-06T17:38:06.101Z,71.28
2023-05-06T17:40:32.656Z,71.24
2023-05-06T17:42:59.433Z,70.85
2023-05-06T17:45:28.193Z,71.33
2023-05-06T17:47:55.158Z,71.42
2023-05-06T17:50:22.416Z,71.45
2023-05-06T17:52:51.103Z,72.21
2023-05-06T17:55:17.913Z,72.04
2023-05-06T17:57:44.727Z,72.35
2023-05-06T18:00:11.768Z,72.30
2023-05-06T18:02:38.517Z,71.64
2023-05-06T18:05:06.495Z,72.37
2023-05-06T18:07:35.759Z,72.25
2023-05-06T18:10:02.349Z,71.67
2023-05-06T18:12:29.050Z,73.21
2023-05-06T18:14:57.474Z,74.44
2023-05-06T18:17:24.109Z,75.16
2023-05-06T18:19:50.793Z,76.17
2023-05-06T18:22:17.390Z,75.62
2023-05-06T18:24:44.149Z,75.01
2023-05-06T18:27:10.896Z,75.95
2023-05-06T18:29:37.432Z,76.67
2023-05-06T18:32:06.515Z,76.59
2023-05-06T18:34:33.173Z,76.17
2023-05-06T18:36:59.668Z,76.75
2023-05-06T18:39:26.513Z,76.18
2023-05-06T18:41:53.046Z,75.73
2023-05-06T18:44:19.606Z,76.11
2023-05-06T18:46:46.223Z,75.90
2023-05-06T18:49:14.088Z,75.78
2023-05-06T18:51:40.914Z,75.59
2023-05-06T18:54:07.642Z,75.30
2023-05-06T18:56:35.510Z,75.62
2023-05-06T18:59:02.139Z,76.01
2023-05-06T19:01:28.833Z,75.97
2023-05-06T19:03:56.700Z,76.04
2023-05-06T19:06:23.472Z,76.07
2023-05-06T19:08:50.128Z,76.52
2023-05-06T19:11:18.942Z,75.64
2023-05-06T19:13:46.285Z,75.40
2023-05-06T19:16:13.955Z,76.18
2023-05-06T19:18:40.643Z,75.53
2023-05-06T19:21:10.015Z,75.58
2023-05-06T19:23:36.742Z,76.12
2023-05-06T19:26:06.278Z,75.90
2023-05-06T19:28:33.452Z,75.55
2023-05-06T19:31:00.018Z,75.64
2023-05-06T19:33:26.963Z,76.28
2023-05-06T19:35:53.504Z,76.39
2023-05-06T19:38:20.483Z,77.05
2023-05-06T19:40:47.026Z,77.22
2023-05-06T19:43:13.623Z,78.24
2023-05-06T19:45:40.235Z,78.50
2023-05-06T19:48:08.582Z,79.20
2023-05-06T19:50:35.438Z,80.67
2023-05-06T19:53:02.066Z,78.92
2023-05-06T19:55:28.627Z,79.89
2023-05-06T19:57:58.884Z,79.47
2023-05-06T20:00:28.017Z,80.67
2023-05-06T20:02:56.507Z,81.18
2023-05-06T20:05:23.642Z,79.98
2023-05-06T20:07:51.281Z,78.77
2023-05-06T20:10:17.810Z,79.35
2023-05-06T20:12:44.468Z,78.09
2023-05-06T20:15:11.566Z,77.20
2023-05-06T20:17:38.541Z,78.19
2023-05-06T20:20:09.733Z,78.20
2023-05-06T20:22:37.490Z,77.38
2023-05-06T20:25:13.129Z,76.45
2023-05-06T20:27:40.035Z,77.50
2023-05-06T20:30:08.113Z,77.02
2023-05-06T20:32:34.936Z,77.75
2023-05-06T20:35:01.510Z,77.82
2023-05-06T20:37:28.694Z,78.53
2023-05-06T20:39:55.346Z,79.55
2023-05-06T20:42:21.887Z,79.27
2023-05-06T20:44:51.270Z,79.54
2023-05-06T20:47:17.737Z,79.55
2023-05-06T20:49:44.317Z,81.43
2023-05-06T20:52:14.474Z,81.61
2023-05-06T20:54:45.290Z,82.07
2023-05-06T20:57:13.872Z,82.91
2023-05-06T20:59:40.391Z,82.13
2023-05-06T21:02:07.078Z,85.05
2023-05-06T21:04:33.767Z,85.26
2023-05-06T21:07:00.395Z,85.65
2023-05-06T21:09:28.037Z,85.31
2023-05-06T21:11:55.654Z,86.11
2023-05-06T21:14:24.718Z,83.29
2023-05-06T21:16:52.111Z,82.19
2023-05-06T21:19:22.234Z,83.93
2023-05-06T21:21:48.820Z,82.61
2023-05-06T21:24:15.745Z,82.11
2023-05-06T21:26:42.349Z,81.84
2023-05-06T21:29:08.900Z,82.32
2023-05-06T21:31:35.587Z,83.08
2023-05-06T21:34:03.465Z,82.54
2023-05-06T21:36:29.998Z,83.69
2023-05-06T21:39:05.532Z,83.39
2023-05-06T21:41:32.103Z,84.21
2023-05-06T21:43:58.645Z,84.73
2023-05-06T21:46:25.488Z,83.52
2023-05-06T21:48:52.149Z,82.72
2023-05-06T21:51:18.683Z,81.72
2023-05-06T21:53:49.721Z,82.68
2023-05-06T21:56:17.431Z,83.03
2023-05-06T21:58:44.130Z,82.53
2023-05-06T22:01:10.822Z,82.52
2023-05-06T22:03:37.639Z,83.29
2023-05-06T22:06:04.904Z,82.33
2023-05-06T22:08:31.679Z,82.79
2023-05-06T22:10:58.210Z,82.97
2023-05-06T22:13:26.795Z,82.81
2023-05-06T22:15:53.957Z,84.02
2023-05-06T22:18:20.689Z,84.84
2023-05-06T22:20:49.216Z,84.12
2023-05-06T22:23:15.831Z,84.20
2023-05-06T22:25:42.360Z,84.05
2023-05-06T22:28:08.934Z,83.73
2023-05-06T22:30:35.637Z,83.78
2023-05-06T22:33:02.225Z,83.23
2023-05-06T22:35:28.852Z,84.80
2023-05-06T22:37:55.400Z,86.14
2023-05-06T22:40:21.943Z,86.60
2023-05-06T22:42:48.468Z,86.44
2023-05-06T22:45:15.056Z,86.43
2023-05-06T22:47:41.683Z,85.30
2023-05-06T22:50:08.966Z,84.79
2023-05-06T22:52:35.534Z,85.06
2023-05-06T22:55:02.601Z,85.64
2023-05-06T22:57:29.161Z,85.73
2023-05-06T22:59:55.711Z,87.18
2023-05-06T23:02:22.282Z,89.12
2023-05-06T23:04:48.933Z,88.83
2023-05-06T23:07:15.807Z,87.90
2023-05-06T23:09:42.341Z,87.01
2023-05-06T23:12:08.921Z,87.82
2023-05-06T23:14:35.542Z,86.13
2023-05-06T23:17:02.176Z,85.99
2023-05-06T23:19:38.638Z,86.74
2023-05-06T23:22:07.582Z,87.42
2023-05-06T23:24:34.117Z,86.99
2023-05-06T23:27:01.211Z,87.49
2023-05-06T23:29:27.788Z,88.18
2023-05-06T23:31:54.554Z,88.11
2023-05-06T23:34:21.110Z,87.54
2023-05-06T23:36:50.966Z,86.82
2023-05-06T23:39:17.652Z,87.03
2023-05-06T23:41:47.019Z,87.22
2023-05-06T23:44:13.445Z,87.65
2023-05-06T23:46:40.182Z,87.35
2023-05-06T23:49:06.818Z,87.83
2023-05-06T23:51:33.473Z,86.54
2023-05-06T23:53:59.976Z,87.31
2023-05-06T23:56:26.510Z,89.05
2023-05-06T23:58:53.038Z,88.95
